Main page
METAR-TAF:

METAR-TAF

Airports :

Le Touquet, France

Le Touquet – Côte d'Opale Airport

latitude: 50-30-53N, longitude: 001-37-39E, elevation: 6 m

Current weather observation

The report was made 26 minutes ago, at 13:30 UTC
Wind 15 kt from the Southwest with gusts up to 27 kt, varying between South/Southwest and West
Temperature 17°C
Humidity 88%
Pressure 1017 hPa
Visibility 10 km or more
Overcast at a height of 600 ft

METAR: LFAT 241330Z AUTO 23015G27KT 200V260 9999 OVC006 17/15 Q1017 TEMPO 4000 RA

Time: 15:56 (13:56 UTC)

Forecast

The report was made 23 hours and 56 minutes ago, at 14:00 UTC
Forecast valid from 23 at 15 UTC to 23 at 24 UTC
Wind 12 kt from the West/Southwest
Visibility 10 km or more
Broken clouds at a height of 2500 ft
Temporary
from 23 at 15 UTC to 23 at 20 UTC
Wind 15 kt from the West/Southwest with gusts up to 25 kt
Becoming
from 23 at 21 UTC to 23 at 24 UTC
Broken clouds at a height of 800 ft

TAF: LFAT 231400Z 2315/2324 24012KT 9999 BKN025 TEMPO 2315/2320 24015G25KT BECMG 2321/2324 BKN008

Weather observations and forecasts of more than 4000 airports (METAR and TAF reports).

The available stations are represented by yellow and red dots on the map.

Hover mouse over dot to see the name of the station.

Then click to see weather observations and forecasts.

To change the map : click on the green buttons with a black cross to zoom in, on the green button with a dash to zoom out, or on the green arrows for adjacent maps.


METAR-TAF: